Houlton International, ME

00:37 EST le 01 février 2015 (GMT -0500)
Millinocket Municipal | Change Station
CLOSE
Current Station
Aéroport
Location: Millinocket,
Altitude: 407 ft
Stations météo à proximité
Avis météorologiques actifs: Wind Chill Advisory Préavis actif: Public Information Statement

Alt. 407 ft 45.65 °N, 68.69 °W | Updated 44 minutes ago

Partiellement nuageux
Partiellement nuageux
2 ° F
Paraît -16 ° F
N
13
Vent Variable Vent de NO
Gusts 30 mph

Aujourd'hui
Haut(e) -- | Bas -- ° F
--% Risque de précip.
Hier
Haut(e) -- | Bas -- ° F
Precip. -- pouce
6:54 AM 4:35 PM
Lune gibbeuse croissante, 93% visible
Pression 29.86 pouce
Visibilité 10.0 Miles terrestres
Nuages Ciel dégagé
Refroidissement éolien -16 ° F
Point de rosée -9 ° F
Humidité 60%
Précipitations 0.10 pouce
Profondeur de la couche neigeuse Non disponible.
UV 0 sur 12
Pollen .10 sur 12
Qualité de l'air Non disponible.
Flu Activity Non disponible.
METAR KMLT 010453Z AUTO 31011G26KT 10SM CLR M17/M23 A2982 RMK AO2 PK WND 30026/0448 SLP110 T11671228 410281167

More Conditions Fewer Conditions

Pression 29.86 pouce
Visibilité 10.0 Miles terrestres
Nuages Ciel dégagé
Refroidissement éolien -16 ° F
Point de rosée -9 ° F
Humidité 60%
Précipitations 0.10 pouce
Profondeur de la couche neigeuse Non disponible.
UV 0 sur 12
Pollen .10 sur 12
Qualité de l'air Non disponible.
Flu Activity Non disponible.
METAR KMLT 010453Z AUTO 31011G26KT 10SM CLR M17/M23 A2982 RMK AO2 PK WND 30026/0448 SLP110 T11671228 410281167

More Conditions Fewer Conditions

10-Day Weather Forecast

Almanac

Astronomie

Feb. 01, 2015 Lever Coucher
Temps réel
Crépuscule civil
Crépuscule nautique
Crépuscule astronomique
Lune
Durée de lumière visible
Longueur du jour
Tomorrow will be .
, % of the Moon is Illuminated

Extrêmes aujourd'hui

State Highs State Lows

Community

WunderPhotos

Upload Photos

1,792,316 Photos téléchargées !

WunderBlogs® & News

Nearby

Qualité de l'air

  Qualité de l'air Indice de la qualité de l'air Polluant
Not available.

Épaisseur de neige

Station Depth Altitude

Activité sismique

Ville Distance Mag. Time & Date
Minimum magnitude displayed is 2.5.

Températures des eaux côtières

Lieu Température

Stations météo à proximité